Terminal Aerodrome Forecast
Issued by NWS Duluth, MN

Home | Current Version | Previous Version | Text Only | Print | Product List | Glossary On
Versions: 1 2 3 4 5 6 7 8 9 10 11 12 13 14 15 16 17 18 19 20 21 22 23 24 25
000
FTUS43 KDLH 290500
TAFDLH
TAF
KDLH 290520Z 2906/3006 31007KT P6SM VCSH SCT080
     FM291500 31012KT P6SM SCT050
     FM291800 31013G19KT P6SM VCSH BKN050
     FM300200 34007KT P6SM SCT050=

USA.gov is the U.S. government's official web portal to all federal, state and local government web resources and services.